Time;durP1;ratioP1;P1;durP2;ratioP2;P2;SDS_P1;SDS_P2;PMS_P1;PMS_P2;Temp;Humidity;BMP_temperature;BMP_pressure;BME280_temperature;BME280_humidity;BME280_pressure;Samples;Min_cycle;Max_cycle;Signal;HPM_P1;HPM_P2
2024/01/25 00:00:18;;;;;;;13.82;4.88;;;;;;;4.96;100.00;95106.28;6226653;23;20000;-95
2024/01/25 00:02:43;;;;;;;11.48;4.45;;;;;;;4.78;100.00;95110.38;6201849;23;20079;-94
2024/01/25 00:05:11;;;;;;;11.07;5.00;;;;;;;4.71;100.00;95109.66;6199469;23;20004;-95
2024/01/25 00:07:48;;;;;;;11.93;4.47;;;;;;;4.64;100.00;95103.72;6227423;23;19997;-93
2024/01/25 00:10:14;;;;;;;8.88;3.70;;;;;;;4.79;100.00;95108.59;6205803;23;20043;-94
2024/01/25 00:12:40;;;;;;;10.02;4.40;;;;;;;5.21;100.00;95110.63;6208226;23;20008;-93
2024/01/25 00:15:06;;;;;;;7.72;3.40;;;;;;;5.16;100.00;95100.88;6207438;23;20000;-95
2024/01/25 00:17:31;;;;;;;10.40;3.35;;;;;;;5.19;100.00;95095.28;6203733;23;20004;-94
2024/01/25 00:19:57;;;;;;;10.32;4.35;;;;;;;5.13;100.00;95090.13;6231388;23;20028;-93
2024/01/25 00:22:22;;;;;;;10.40;4.45;;;;;;;5.28;100.00;95103.56;6230354;23;20005;-94
2024/01/25 00:24:48;;;;;;;10.07;3.97;;;;;;;4.90;100.00;95089.75;6206017;23;20478;-94
2024/01/25 00:27:13;;;;;;;7.20;2.72;;;;;;;4.87;100.00;95090.16;6228990;23;20322;-95
2024/01/25 00:29:39;;;;;;;8.52;2.70;;;;;;;4.82;100.00;95092.59;6204284;23;20111;-94
2024/01/25 00:32:05;;;;;;;14.93;5.45;;;;;;;4.95;100.00;95097.69;6230891;23;20134;-94
2024/01/25 00:34:30;;;;;;;10.35;4.05;;;;;;;4.86;100.00;95093.75;6230125;23;19997;-94
2024/01/25 00:36:56;;;;;;;9.07;4.63;;;;;;;4.86;100.00;95090.38;6225895;23;20000;-93
2024/01/25 00:39:22;;;;;;;12.75;4.40;;;;;;;4.89;100.00;95090.75;6228636;23;20023;-94
2024/01/25 00:41:51;;;;;;;9.40;4.50;;;;;;;4.95;100.00;95089.88;6232067;23;20000;-94
2024/01/25 00:44:19;;;;;;;9.60;4.38;;;;;;;5.12;100.00;95086.72;6205141;23;20063;-93
2024/01/25 00:46:46;;;;;;;6.70;3.25;;;;;;;4.97;100.00;95083.69;6205180;23;20019;-93
2024/01/25 00:52:35;;;;;;;11.25;3.40;;;;;;;4.72;100.00;95087.06;6228490;23;20063;-94
2024/01/25 00:55:01;;;;;;;11.20;3.70;;;;;;;4.79;100.00;95085.22;6204956;23;19996;-94
2024/01/25 00:57:27;;;;;;;7.60;3.10;;;;;;;4.70;100.00;95089.09;6201079;23;20424;-93
2024/01/25 00:59:53;;;;;;;8.88;3.78;;;;;;;4.94;100.00;95085.69;6200616;23;20027;-94
2024/01/25 01:02:20;;;;;;;8.80;3.75;;;;;;;4.88;100.00;95083.97;6223917;23;20015;-95
2024/01/25 01:04:46;;;;;;;12.27;4.22;;;;;;;4.86;100.00;95085.97;6199181;23;20046;-93
2024/01/25 01:07:12;;;;;;;8.30;3.60;;;;;;;4.82;100.00;95092.59;6201117;23;20131;-94
2024/01/25 01:09:38;;;;;;;13.57;3.97;;;;;;;4.73;100.00;95091.25;6198270;23;20001;-95
2024/01/25 01:12:03;;;;;;;7.78;3.22;;;;;;;4.74;100.00;95092.88;6223403;23;20000;-94
2024/01/25 01:14:29;;;;;;;8.23;3.28;;;;;;;4.81;100.00;95096.19;6198852;23;20008;-93
2024/01/25 01:16:55;;;;;;;9.80;2.42;;;;;;;4.62;100.00;95092.75;6219712;23;20027;-94
2024/01/25 01:19:24;;;;;;;5.65;2.60;;;;;;;4.52;100.00;95094.03;6223242;23;19992;-93
2024/01/25 01:21:49;;;;;;;7.13;3.20;;;;;;;4.39;100.00;95094.91;6221437;23;20020;-93
2024/01/25 01:24:17;;;;;;;12.88;3.83;;;;;;;4.53;100.00;95102.59;6194458;23;20398;-93
2024/01/25 01:26:42;;;;;;;5.47;2.70;;;;;;;4.39;100.00;95097.50;6200178;23;19997;-94
2024/01/25 01:29:11;;;;;;;4.82;2.40;;;;;;;4.23;100.00;95104.00;6196472;23;20007;-95
2024/01/25 01:31:38;;;;;;;10.60;3.40;;;;;;;4.13;100.00;95097.66;6222823;23;19993;-94
2024/01/25 01:34:04;;;;;;;7.65;3.05;;;;;;;4.05;100.00;95093.50;6195691;23;20005;-93
2024/01/25 01:36:29;;;;;;;7.13;3.38;;;;;;;4.01;100.00;95092.34;6197678;23;20077;-93
2024/01/25 01:38:57;;;;;;;10.07;3.33;;;;;;;4.07;100.00;95100.09;6200806;23;20001;-93
2024/01/25 01:41:22;;;;;;;8.52;3.40;;;;;;;3.97;100.00;95104.91;6198017;23;20000;-93
2024/01/25 01:43:52;;;;;;;7.65;3.20;;;;;;;3.88;100.00;95090.63;6194859;23;20071;-95
2024/01/25 01:46:31;;;;;;;10.60;3.55;;;;;;;4.00;100.00;95099.31;6197429;23;19996;-93
2024/01/25 01:48:57;;;;;;;8.50;3.38;;;;;;;4.06;100.00;95092.50;6195946;23;20009;-93
2024/01/25 01:51:23;;;;;;;7.28;3.30;;;;;;;4.32;100.00;95086.38;6195521;23;20095;-93
2024/01/25 01:53:48;;;;;;;6.93;3.33;;;;;;;4.20;100.00;95090.63;6194939;23;20004;-95
2024/01/25 01:56:14;;;;;;;7.60;2.90;;;;;;;4.07;100.00;95102.69;6198439;23;20029;-94
2024/01/25 01:58:40;;;;;;;8.48;3.25;;;;;;;4.07;100.00;95097.50;6195961;23;20001;-93
2024/01/25 02:01:06;;;;;;;6.60;2.80;;;;;;;4.00;100.00;95098.53;6196720;23;20000;-93
2024/01/25 02:03:33;;;;;;;4.05;2.00;;;;;;;3.94;100.00;95097.56;6196570;23;20422;-94
2024/01/25 02:06:02;;;;;;;8.98;3.10;;;;;;;4.05;100.00;95093.50;6197109;23;20020;-93
2024/01/25 02:08:29;;;;;;;6.00;2.65;;;;;;;4.02;100.00;95093.94;6195210;23;20008;-94
2024/01/25 02:10:55;;;;;;;9.52;3.70;;;;;;;4.31;100.00;95091.75;6193633;23;20001;-94
2024/01/25 02:13:21;;;;;;;9.75;3.65;;;;;;;4.09;100.00;95079.91;6196783;23;20088;-95
2024/01/25 02:15:47;;;;;;;7.10;3.28;;;;;;;4.19;100.00;95083.88;6196205;23;20087;-93
2024/01/25 02:18:12;;;;;;;9.75;3.92;;;;;;;4.32;100.00;95080.38;6196080;23;20402;-94
2024/01/25 02:20:47;;;;;;;12.38;4.18;;;;;;;4.44;100.00;95083.91;6194104;23;20001;-93
2024/01/25 02:23:12;;;;;;;9.45;3.88;;;;;;;4.30;100.00;95083.19;6200963;23;20004;-94
2024/01/25 02:25:38;;;;;;;10.15;3.35;;;;;;;4.11;100.00;95079.72;6202178;23;20052;-94
2024/01/25 02:28:04;;;;;;;6.50;3.20;;;;;;;3.99;100.00;95082.16;6203536;23;20371;-94
2024/01/25 02:30:29;;;;;;;6.50;2.80;;;;;;;3.98;100.00;95082.38;6204411;23;20004;-96
2024/01/25 02:32:55;;;;;;;7.25;3.35;;;;;;;3.95;100.00;95070.63;6204352;23;20134;-94
2024/01/25 02:35:22;;;;;;;8.80;3.40;;;;;;;4.07;100.00;95074.16;6203535;23;20001;-92
2024/01/25 02:37:50;;;;;;;7.00;3.42;;;;;;;4.21;100.00;95076.66;6226576;23;19992;-94
2024/01/25 02:40:16;;;;;;;9.65;3.83;;;;;;;4.19;100.00;95074.28;6231707;23;19992;-94
2024/01/25 02:42:42;;;;;;;10.32;3.85;;;;;;;4.07;100.00;95078.53;6203710;23;20000;-94
2024/01/25 02:45:08;;;;;;;11.65;3.55;;;;;;;4.04;100.00;95069.38;6202406;23;19996;-94
2024/01/25 02:47:33;;;;;;;9.85;3.55;;;;;;;4.03;100.00;95070.38;6224534;23;20402;-95
2024/01/25 02:49:59;;;;;;;7.28;3.45;;;;;;;4.23;100.00;95070.28;6201534;23;20054;-95
2024/01/25 02:52:24;;;;;;;9.23;3.30;;;;;;;4.05;100.00;95068.38;6198915;23;20013;-94
2024/01/25 02:54:50;;;;;;;8.05;3.10;;;;;;;4.14;100.00;95066.34;6196339;23;19992;-94
2024/01/25 02:57:16;;;;;;;7.45;3.40;;;;;;;4.19;100.00;95063.13;6199972;23;20046;-95
2024/01/25 02:59:41;;;;;;;8.40;3.72;;;;;;;4.17;100.00;95062.53;6227350;23;19993;-95
2024/01/25 03:02:07;;;;;;;8.52;4.18;;;;;;;3.99;100.00;95055.44;6202776;23;20060;-94
2024/01/25 03:04:32;;;;;;;9.15;3.13;;;;;;;4.11;100.00;95064.16;6231237;23;19999;-95
2024/01/25 03:06:58;;;;;;;9.48;4.15;;;;;;;4.00;100.00;95055.22;6229825;23;20030;-95
2024/01/25 03:09:24;;;;;;;11.68;4.00;;;;;;;4.01;100.00;95056.81;6229305;23;20004;-94
2024/01/25 03:11:52;;;;;;;10.27;3.83;;;;;;;4.21;100.00;95061.09;6205551;23;20056;-94
2024/01/25 03:14:18;;;;;;;8.30;3.83;;;;;;;3.99;100.00;95058.03;6225928;23;20000;-93
2024/01/25 03:16:46;;;;;;;8.02;3.38;;;;;;;3.93;100.00;95062.25;6228633;23;20015;-94
2024/01/25 03:19:12;;;;;;;11.00;3.15;;;;;;;3.99;100.00;95056.22;6203929;23;20004;-95
2024/01/25 03:21:43;;;;;;;7.30;3.13;;;;;;;4.00;100.00;95052.63;6228851;23;19996;-93
2024/01/25 03:24:09;;;;;;;7.22;3.53;;;;;;;4.28;100.00;95048.09;6204511;23;20019;-94
2024/01/25 03:26:34;;;;;;;9.00;4.13;;;;;;;4.30;100.00;95054.63;6203814;23;20047;-93
2024/01/25 03:29:00;;;;;;;13.25;4.15;;;;;;;4.18;100.00;95043.38;6200388;23;20383;-93
2024/01/25 03:31:25;;;;;;;15.18;4.35;;;;;;;4.39;100.00;95037.03;6204802;23;20395;-94
2024/01/25 03:33:51;;;;;;;6.85;3.53;;;;;;;4.03;100.00;95030.69;6198401;23;20005;-94
2024/01/25 03:36:16;;;;;;;9.30;3.95;;;;;;;4.16;100.00;95046.16;6223352;23;20000;-94
2024/01/25 03:38:43;;;;;;;9.40;3.40;;;;;;;4.27;100.00;95036.13;6200042;23;20076;-95
2024/01/25 03:41:09;;;;;;;9.70;3.42;;;;;;;4.26;100.00;95037.91;6225121;23;19997;-93
2024/01/25 03:43:35;;;;;;;12.75;3.85;;;;;;;4.37;100.00;95034.66;6198057;23;20008;-94
2024/01/25 03:46:01;;;;;;;8.82;3.47;;;;;;;4.23;100.00;95028.78;6195647;23;20075;-94
2024/01/25 03:48:28;;;;;;;8.48;3.53;;;;;;;4.10;100.00;95036.63;6224833;23;20083;-94
2024/01/25 03:50:56;;;;;;;10.40;3.33;;;;;;;4.07;100.00;95031.84;6196914;23;20003;-94
2024/01/25 03:53:24;;;;;;;10.05;3.53;;;;;;;4.33;100.00;95035.28;6198377;23;20004;-94
2024/01/25 03:55:52;;;;;;;13.20;4.05;;;;;;;4.06;100.00;95033.66;6195371;23;20075;-92
2024/01/25 03:58:18;;;;;;;9.27;3.20;;;;;;;4.29;100.00;95034.88;6198972;23;20020;-94
2024/01/25 04:00:43;;;;;;;10.85;3.72;;;;;;;4.31;100.00;95027.72;6200132;23;20007;-94
2024/01/25 04:03:10;;;;;;;7.47;3.33;;;;;;;4.38;100.00;95028.44;6200368;23;20315;-94
2024/01/25 04:05:35;;;;;;;9.98;3.33;;;;;;;4.23;100.00;95025.38;6196545;23;19997;-93
2024/01/25 04:08:01;;;;;;;4.88;2.40;;;;;;;4.15;100.00;95017.84;6227166;23;20031;-94
2024/01/25 04:10:27;;;;;;;7.88;2.00;;;;;;;4.17;100.00;95021.81;6203092;23;19996;-94
2024/01/25 04:12:52;;;;;;;3.10;1.70;;;;;;;4.17;100.00;95008.06;6228194;23;19992;-94
2024/01/25 04:15:18;;;;;;;7.68;1.70;;;;;;;4.25;100.00;95018.16;6202759;23;20059;-95
2024/01/25 04:17:43;;;;;;;11.65;4.50;;;;;;;4.33;100.00;95020.50;6205344;23;20008;-94
2024/01/25 04:20:09;;;;;;;14.60;5.38;;;;;;;4.23;100.00;95017.59;6201643;23;20391;-94
2024/01/25 04:22:40;;;;;;;11.48;4.53;;;;;;;4.33;100.00;95030.88;6205859;23;20037;-94
2024/01/25 04:25:06;;;;;;;16.63;6.05;;;;;;;4.20;100.00;95030.97;6224677;23;20000;-88
2024/01/25 04:27:31;;;;;;;18.27;5.13;;;;;;;4.31;100.00;95035.50;6216940;23;20310;-88
2024/01/25 04:29:57;;;;;;;14.70;5.78;;;;;;;4.71;100.00;95028.38;6192375;23;20394;-88
2024/01/25 04:32:22;;;;;;;8.40;4.15;;;;;;;4.52;100.00;95031.75;6192560;23;20005;-88
2024/01/25 04:34:48;;;;;;;6.95;3.15;;;;;;;4.38;100.00;95038.81;6192288;23;19996;-88
2024/01/25 04:37:14;;;;;;;8.95;2.95;;;;;;;4.59;100.00;95031.69;6192018;23;20011;-88
2024/01/25 04:39:41;;;;;;;14.80;4.15;;;;;;;4.55;100.00;95037.50;6192141;23;20020;-88
2024/01/25 04:42:08;;;;;;;12.77;4.07;;;;;;;4.41;100.00;95026.44;6192092;23;20011;-88
2024/01/25 04:44:33;;;;;;;12.18;3.40;;;;;;;4.38;100.00;95031.03;6192005;23;20496;-88
2024/01/25 04:47:00;;;;;;;9.35;4.18;;;;;;;4.32;100.00;95036.28;6192256;23;20012;-88
2024/01/25 04:49:25;;;;;;;11.48;3.75;;;;;;;4.34;100.00;95035.06;6192377;23;20000;-88
2024/01/25 04:51:51;;;;;;;11.35;4.18;;;;;;;4.59;100.00;95036.06;6192391;23;20421;-87
2024/01/25 04:54:16;;;;;;;7.05;2.70;;;;;;;4.63;100.00;95038.03;6216836;23;20004;-88
2024/01/25 04:56:42;;;;;;;13.05;4.65;;;;;;;4.58;100.00;95035.28;6192647;23;20501;-88
2024/01/25 04:59:11;;;;;;;15.70;5.78;;;;;;;4.56;100.00;95036.50;6217205;23;19996;-88
2024/01/25 05:01:36;;;;;;;16.25;5.68;;;;;;;4.61;100.00;95027.09;6191862;23;20080;-87
2024/01/25 05:04:03;;;;;;;14.40;5.10;;;;;;;4.55;100.00;95040.13;6216816;23;20064;-87
2024/01/25 05:06:29;;;;;;;10.18;4.45;;;;;;;4.29;100.00;95028.94;6216013;23;20001;-87
2024/01/25 05:08:54;;;;;;;15.52;4.78;;;;;;;4.26;100.00;95044.91;6192226;23;20341;-87
2024/01/25 05:11:19;;;;;;;11.75;4.65;;;;;;;4.11;100.00;95040.81;6216448;23;20055;-87
2024/01/25 05:13:45;;;;;;;10.98;4.78;;;;;;;4.00;100.00;95044.06;6216809;23;20019;-88
2024/01/25 05:16:11;;;;;;;10.55;4.90;;;;;;;4.10;100.00;95047.00;6191940;23;20005;-87
2024/01/25 05:18:37;;;;;;;16.27;5.45;;;;;;;4.25;100.00;95044.09;6215986;23;19992;-89
2024/01/25 05:21:02;;;;;;;14.65;5.25;;;;;;;4.24;100.00;95042.53;6192067;23;20000;-89
2024/01/25 05:23:28;;;;;;;8.73;4.30;;;;;;;4.09;100.00;95055.81;6191961;23;20001;-88
2024/01/25 05:25:53;;;;;;;13.43;3.83;;;;;;;3.92;100.00;95045.91;6192232;23;20001;-89
2024/01/25 05:28:19;;;;;;;8.27;3.83;;;;;;;3.96;100.00;95052.28;6216873;23;20011;-89
2024/01/25 05:30:44;;;;;;;11.60;2.90;;;;;;;4.08;100.00;95046.41;6192497;23;20000;-89
2024/01/25 05:33:10;;;;;;;17.70;4.78;;;;;;;4.17;100.00;95049.56;6218229;23;20019;-88
2024/01/25 05:35:35;;;;;;;11.10;4.80;;;;;;;4.12;100.00;95046.78;6216605;23;20008;-89
2024/01/25 05:38:01;;;;;;;9.18;4.78;;;;;;;4.01;100.00;95049.03;6216398;23;20000;-88
2024/01/25 05:40:26;;;;;;;10.23;4.57;;;;;;;3.95;100.00;95045.50;6216610;23;20054;-89
2024/01/25 05:42:52;;;;;;;16.38;4.75;;;;;;;3.91;100.00;95048.72;6191926;23;20011;-88
2024/01/25 05:45:20;;;;;;;14.68;5.68;;;;;;;3.95;100.00;95049.88;6216650;23;20397;-88
2024/01/25 05:47:46;;;;;;;10.20;4.07;;;;;;;4.01;100.00;95046.44;6191832;23;20028;-89
2024/01/25 05:50:11;;;;;;;9.32;4.32;;;;;;;4.22;100.00;95054.91;6192133;23;20421;-87
2024/01/25 05:52:37;;;;;;;11.82;4.30;;;;;;;4.09;100.00;95042.84;6216100;23;20027;-87
2024/01/25 05:55:04;;;;;;;7.90;3.50;;;;;;;4.20;100.00;95033.56;6216507;23;20056;-87
2024/01/25 05:57:29;;;;;;;8.25;2.67;;;;;;;4.02;100.00;95039.47;6216559;23;20009;-87
2024/01/25 05:59:55;;;;;;;10.70;4.07;;;;;;;4.30;100.00;95035.69;6216468;23;20059;-87
2024/01/25 06:02:20;;;;;;;8.88;3.40;;;;;;;4.42;100.00;95049.59;6216518;23;20003;-87
2024/01/25 06:04:46;;;;;;;9.73;3.30;;;;;;;4.75;100.00;95058.13;6216538;23;20001;-87
2024/01/25 06:07:11;;;;;;;6.18;2.75;;;;;;;4.58;100.00;95047.47;6217872;23;20050;-87
2024/01/25 06:09:38;;;;;;;7.32;2.25;;;;;;;4.42;100.00;95047.00;6216705;23;20005;-87
2024/01/25 06:12:04;;;;;;;7.18;2.50;;;;;;;4.71;100.00;95057.75;6191270;23;20047;-87
2024/01/25 06:14:30;;;;;;;4.60;2.30;;;;;;;4.63;100.00;95058.00;6216506;23;20011;-87
2024/01/25 06:16:56;;;;;;;4.65;2.17;;;;;;;4.52;100.00;95059.50;6191652;23;20326;-87
2024/01/25 06:19:21;;;;;;;5.32;2.08;;;;;;;4.40;100.00;95064.56;6216436;23;19989;-87
2024/01/25 06:21:46;;;;;;;5.55;2.13;;;;;;;4.60;100.00;95066.22;6216263;23;19996;-87
2024/01/25 06:24:12;;;;;;;8.55;2.13;;;;;;;4.57;100.00;95072.63;6190942;23;20054;-87
2024/01/25 06:26:37;;;;;;;4.43;2.08;;;;;;;4.39;100.00;95068.94;6216395;23;20513;-87
2024/01/25 06:29:03;;;;;;;9.20;1.98;;;;;;;4.57;100.00;95072.63;6216260;23;20006;-87
2024/01/25 06:31:28;;;;;;;7.57;2.75;;;;;;;4.66;100.00;95078.34;6191557;23;20407;-87
2024/01/25 06:33:54;;;;;;;7.13;2.90;;;;;;;4.75;100.00;95069.28;6191816;23;20000;-87
2024/01/25 06:36:20;;;;;;;7.15;2.85;;;;;;;4.71;100.00;95070.72;6216338;23;20008;-87
2024/01/25 06:38:45;;;;;;;4.55;2.33;;;;;;;4.73;100.00;95073.09;6191454;23;20404;-87
2024/01/25 06:41:11;;;;;;;7.25;2.60;;;;;;;4.91;100.00;95067.97;6215712;23;20275;-87
2024/01/25 06:43:36;;;;;;;7.60;2.85;;;;;;;4.91;100.00;95073.16;6191356;23;20465;-87
2024/01/25 06:46:02;;;;;;;7.43;2.70;;;;;;;5.04;100.00;95069.63;6191400;23;20425;-87
2024/01/25 06:48:27;;;;;;;9.93;2.72;;;;;;;4.78;100.00;95068.84;6191379;23;20441;-87
2024/01/25 06:50:53;;;;;;;4.22;1.83;;;;;;;4.80;100.00;95066.06;6190787;23;20000;-87
2024/01/25 06:53:19;;;;;;;3.30;1.88;;;;;;;4.86;100.00;95064.41;6216020;23;20009;-87
2024/01/25 06:55:45;;;;;;;5.18;1.77;;;;;;;4.71;100.00;95067.31;6191346;23;20001;-87
2024/01/25 06:58:10;;;;;;;7.13;1.95;;;;;;;4.81;100.00;95063.25;6216054;23;20301;-87
2024/01/25 07:00:38;;;;;;;7.88;2.20;;;;;;;5.01;100.00;95079.63;6191112;23;20087;-87
2024/01/25 07:03:04;;;;;;;6.97;2.92;;;;;;;5.05;100.00;95070.44;6192035;23;20000;-87
2024/01/25 07:05:33;;;;;;;9.23;3.72;;;;;;;5.19;100.00;95069.28;6191542;23;20040;-87
2024/01/25 07:07:58;;;;;;;8.65;3.90;;;;;;;5.26;100.00;95068.41;6215914;23;20473;-85
2024/01/25 07:10:24;;;;;;;9.32;3.17;;;;;;;5.50;100.00;95064.16;6190649;23;20005;-87
2024/01/25 07:12:49;;;;;;;15.02;5.45;;;;;;;5.51;100.00;95070.94;6215917;23;20055;-87
2024/01/25 07:15:15;;;;;;;10.65;4.82;;;;;;;5.38;100.00;95066.69;6191166;23;20420;-87
2024/01/25 07:17:40;;;;;;;15.88;4.88;;;;;;;5.47;100.00;95075.00;6191527;23;20031;-87
2024/01/25 07:20:06;;;;;;;5.88;3.30;;;;;;;5.69;100.00;95066.75;6191108;23;20001;-87
2024/01/25 07:22:31;;;;;;;9.95;3.83;;;;;;;5.88;100.00;95075.31;6216106;23;19997;-87
2024/01/25 07:24:57;;;;;;;8.18;3.75;;;;;;;5.88;100.00;95067.50;6216038;23;20011;-87
2024/01/25 07:27:22;;;;;;;9.00;3.08;;;;;;;5.94;100.00;95067.41;6191086;23;19997;-87
2024/01/25 07:29:48;;;;;;;9.77;3.33;;;;;;;6.04;100.00;95056.53;6190983;23;20040;-87
2024/01/25 07:32:13;;;;;;;7.90;3.58;;;;;;;6.21;100.00;95066.31;6190917;23;19996;-87
2024/01/25 07:34:39;;;;;;;9.57;3.28;;;;;;;6.19;100.00;95065.75;6190991;23;20008;-87
2024/01/25 07:37:04;;;;;;;5.88;2.90;;;;;;;6.23;100.00;95075.47;6191466;23;19996;-87
2024/01/25 07:39:49;;;;;;;8.00;2.55;;;;;;;6.43;100.00;95060.59;6190946;23;20028;-87
2024/01/25 07:42:15;;;;;;;9.95;2.90;;;;;;;6.36;100.00;95055.47;6215864;23;20007;-87
2024/01/25 07:44:40;;;;;;;9.02;3.05;;;;;;;6.39;100.00;95064.66;6191025;23;20467;-87
2024/01/25 07:47:06;;;;;;;5.88;2.88;;;;;;;6.74;100.00;95059.50;6191317;23;20268;-87
2024/01/25 07:49:31;;;;;;;3.75;2.05;;;;;;;6.91;100.00;95053.63;6190898;23;20015;-87
2024/01/25 07:51:57;;;;;;;6.75;2.67;;;;;;;7.56;100.00;95058.88;6215880;23;20043;-87
2024/01/25 07:54:23;;;;;;;4.50;2.03;;;;;;;7.98;100.00;95056.00;6193401;23;20088;-85
2024/01/25 07:56:48;;;;;;;3.40;1.50;;;;;;;8.99;98.79;95060.78;6217723;23;19996;-85
2024/01/25 07:59:13;;;;;;;3.92;1.35;;;;;;;9.50;93.28;95060.69;6192644;23;20008;-88
2024/01/25 08:01:39;;;;;;;2.05;1.30;;;;;;;9.67;93.13;95059.81;6217655;23;20004;-87
2024/01/25 08:04:04;;;;;;;1.95;1.00;;;;;;;10.63;83.46;95064.75;6218107;23;20076;-88
2024/01/25 08:06:30;;;;;;;1.13;0.73;;;;;;;11.25;77.07;95057.28;6217945;23;20039;-87
2024/01/25 08:08:55;;;;;;;1.63;1.20;;;;;;;11.28;79.19;95060.19;6193138;23;20005;-87
2024/01/25 08:11:21;;;;;;;0.20;0.20;;;;;;;11.62;68.17;95061.69;6217513;23;19993;-88
2024/01/25 08:13:47;;;;;;;1.15;0.55;;;;;;;12.56;62.77;95052.97;6192902;23;20011;-87
2024/01/25 08:16:13;;;;;;;0.90;0.50;;;;;;;12.62;64.37;95056.38;6193055;23;20051;-86
2024/01/25 08:18:39;;;;;;;1.02;0.57;;;;;;;12.78;61.18;95059.03;6217536;23;20004;-85
2024/01/25 08:21:05;;;;;;;0.65;0.38;;;;;;;13.32;59.17;95062.09;6192267;23;20001;-85
2024/01/25 08:23:30;;;;;;;2.03;0.60;;;;;;;13.26;61.38;95054.22;6192331;23;20001;-86
2024/01/25 08:25:56;;;;;;;0.68;0.50;;;;;;;13.11;60.08;95054.25;6192434;23;20001;-86
2024/01/25 08:28:21;;;;;;;1.08;0.45;;;;;;;12.97;62.67;95054.00;6192675;23;20424;-85
2024/01/25 08:30:47;;;;;;;4.25;1.70;;;;;;;12.30;67.80;95060.81;6192180;23;20051;-86
2024/01/25 08:33:13;;;;;;;3.85;1.55;;;;;;;11.59;73.73;95055.09;6192303;23;20011;-86
2024/01/25 08:35:40;;;;;;;4.10;1.73;;;;;;;10.84;78.00;95058.59;6192231;23;20171;-85
2024/01/25 08:38:06;;;;;;;4.05;1.90;;;;;;;10.09;75.93;95064.47;6217080;23;20004;-88
2024/01/25 08:40:32;;;;;;;9.70;2.17;;;;;;;9.64;76.85;95078.63;6192829;23;20004;-88
2024/01/25 08:42:58;;;;;;;3.92;1.80;;;;;;;9.44;82.54;95079.97;6192580;23;20406;-87
2024/01/25 08:45:23;;;;;;;2.20;1.45;;;;;;;9.40;86.20;95082.28;6217866;23;20043;-87
2024/01/25 08:47:51;;;;;;;4.10;1.67;;;;;;;9.33;88.56;95094.75;6192454;23;20142;-87
2024/01/25 08:50:16;;;;;;;11.60;2.10;;;;;;;9.12;93.76;95086.59;6193116;23;20006;-88
2024/01/25 08:52:42;;;;;;;10.70;3.38;;;;;;;8.75;96.58;95100.94;6217381;23;20033;-87
2024/01/25 08:55:09;;;;;;;7.60;3.13;;;;;;;8.65;98.62;95097.38;6192496;23;19996;-87
2024/01/25 08:57:35;;;;;;;8.57;3.22;;;;;;;8.49;100.00;95095.28;6192688;23;20004;-87
2024/01/25 09:00:00;;;;;;;8.80;3.05;;;;;;;8.56;100.00;95092.53;6217226;23;20391;-87
2024/01/25 09:02:29;;;;;;;9.02;3.63;;;;;;;8.57;100.00;95095.97;6217069;23;20001;-87
2024/01/25 09:04:55;;;;;;;8.02;4.03;;;;;;;8.54;100.00;95099.03;6193032;23;20314;-88
2024/01/25 09:07:22;;;;;;;7.18;3.72;;;;;;;8.55;100.00;95100.63;6192203;23;20012;-87
2024/01/25 09:09:48;;;;;;;12.07;5.00;;;;;;;8.47;100.00;95105.16;6192319;23;20001;-87
2024/01/25 09:12:14;;;;;;;13.57;6.43;;;;;;;8.43;100.00;95105.88;6192176;23;20117;-87
2024/01/25 09:14:39;;;;;;;20.67;7.07;;;;;;;8.57;100.00;95112.41;6217124;23;20050;-87
2024/01/25 09:17:05;;;;;;;10.52;5.10;;;;;;;8.65;100.00;95113.06;6217121;23;20398;-88
2024/01/25 09:19:31;;;;;;;10.98;6.20;;;;;;;8.82;100.00;95113.84;6217351;23;20374;-87
2024/01/25 09:21:59;;;;;;;10.45;4.90;;;;;;;8.94;100.00;95121.59;6217591;23;20394;-87
2024/01/25 09:24:25;;;;;;;10.63;4.22;;;;;;;9.06;100.00;95118.94;6217075;23;20130;-87
2024/01/25 09:26:50;;;;;;;9.15;4.25;;;;;;;9.04;100.00;95129.63;6217366;23;20000;-87
2024/01/25 09:29:16;;;;;;;13.75;5.43;;;;;;;9.03;100.00;95124.63;6191949;23;20000;-87
2024/01/25 09:31:41;;;;;;;15.68;4.82;;;;;;;8.96;100.00;95140.47;6216844;23;20000;-87
2024/01/25 09:34:07;;;;;;;15.02;5.68;;;;;;;8.82;100.00;95137.38;6216892;23;20020;-88
2024/01/25 09:36:32;;;;;;;15.55;5.93;;;;;;;8.90;100.00;95138.81;6217266;23;20000;-87
2024/01/25 09:38:58;;;;;;;14.63;5.70;;;;;;;8.99;100.00;95139.19;6192031;23;19993;-87
2024/01/25 09:41:24;;;;;;;12.88;5.30;;;;;;;8.97;100.00;95146.50;6191941;23;20453;-87
2024/01/25 09:43:49;;;;;;;16.30;6.38;;;;;;;9.05;100.00;95151.34;6191955;23;20011;-87
2024/01/25 09:46:17;;;;;;;21.52;7.50;;;;;;;9.10;100.00;95148.78;6191947;23;20398;-87
2024/01/25 09:48:46;;;;;;;19.70;8.48;;;;;;;9.14;100.00;95157.72;6192410;23;20350;-88
2024/01/25 09:51:11;;;;;;;19.73;9.55;;;;;;;9.12;100.00;95172.09;6192143;23;20399;-87
2024/01/25 09:53:37;;;;;;;24.70;11.50;;;;;;;9.13;100.00;95166.59;6216624;23;20004;-88
2024/01/25 09:56:07;;;;;;;33.60;15.18;;;;;;;9.28;100.00;95179.13;6216701;23;20024;-87
2024/01/25 09:58:39;;;;;;;33.45;16.92;;;;;;;9.20;100.00;95176.91;6191936;23;19996;-87
2024/01/25 10:01:09;;;;;;;40.78;16.95;;;;;;;9.38;100.00;95173.25;6191925;23;20059;-88
2024/01/25 10:03:35;;;;;;;40.03;18.08;;;;;;;9.38;100.00;95175.06;6191907;23;20050;-88
2024/01/25 10:06:00;;;;;;;42.60;19.33;;;;;;;9.39;100.00;95177.47;6191920;23;20011;-87
2024/01/25 10:08:26;;;;;;;36.92;18.33;;;;;;;9.37;100.00;95176.09;6216667;23;20410;-87
2024/01/25 10:10:53;;;;;;;42.78;19.90;;;;;;;9.39;100.00;95174.84;6191558;23;20003;-88
2024/01/25 10:13:19;;;;;;;37.83;19.52;;;;;;;9.29;100.00;95172.88;6192378;23;20055;-87
2024/01/25 10:15:47;;;;;;;49.85;21.98;;;;;;;9.30;100.00;95166.59;6191644;23;20004;-87
2024/01/25 10:18:13;;;;;;;46.83;20.25;;;;;;;9.28;100.00;95170.47;6192441;23;19996;-87
2024/01/25 10:20:47;;;;;;;32.03;18.60;;;;;;;9.36;100.00;95166.69;6216243;23;20402;-87
2024/01/25 10:23:13;;;;;;;41.35;20.55;;;;;;;9.46;100.00;95158.97;6191311;23;19996;-85
2024/01/25 10:25:38;;;;;;;40.92;19.45;;;;;;;9.48;100.00;95162.16;6191301;23;20080;-88
2024/01/25 10:28:07;;;;;;;40.35;19.38;;;;;;;9.48;100.00;95155.09;6191478;23;20004;-88
2024/01/25 10:30:34;;;;;;;36.72;18.35;;;;;;;9.55;100.00;95161.97;6216203;23;20322;-88
2024/01/25 10:33:04;;;;;;;46.92;20.17;;;;;;;9.64;100.00;95162.34;6216695;23;20424;-88
2024/01/25 10:35:30;;;;;;;46.65;19.70;;;;;;;9.72;100.00;95160.13;6191642;23;20000;-88
2024/01/25 10:37:55;;;;;;;43.13;18.90;;;;;;;9.83;100.00;95155.03;6216210;23;20076;-88
2024/01/25 10:40:21;;;;;;;39.53;19.55;;;;;;;9.98;100.00;95155.22;6191012;23;20048;-88
2024/01/25 10:42:47;;;;;;;45.38;19.55;;;;;;;9.94;100.00;95148.88;6191488;23;20001;-87
2024/01/25 10:45:13;;;;;;;43.15;20.17;;;;;;;10.01;100.00;95144.25;6191442;23;20001;-87
2024/01/25 10:47:40;;;;;;;44.42;20.10;;;;;;;10.00;100.00;95152.34;6216262;23;20408;-87
2024/01/25 10:50:09;;;;;;;41.95;20.33;;;;;;;10.02;100.00;95145.03;6216210;23;20001;-87
2024/01/25 10:52:35;;;;;;;41.92;20.08;;;;;;;10.18;100.00;95140.75;6191776;23;20083;-87
2024/01/25 10:55:01;;;;;;;45.58;21.60;;;;;;;10.16;100.00;95133.16;6190926;23;20055;-87
2024/01/25 10:57:26;;;;;;;41.58;19.98;;;;;;;10.21;100.00;95148.16;6191673;23;20378;-87
2024/01/25 10:59:52;;;;;;;39.55;19.65;;;;;;;10.23;100.00;95150.50;6215911;23;20000;-87
2024/01/25 11:02:20;;;;;;;41.30;20.40;;;;;;;10.39;100.00;95143.59;6215975;23;19996;-85
2024/01/25 11:04:55;;;;;;;46.90;19.55;;;;;;;10.41;100.00;95154.66;6215804;23;20008;-85
2024/01/25 11:07:21;;;;;;;44.47;21.25;;;;;;;10.43;100.00;95147.34;6215700;23;20000;-85
2024/01/25 11:09:51;;;;;;;43.35;20.70;;;;;;;10.51;100.00;95156.59;6215608;23;20434;-85
2024/01/25 11:12:18;;;;;;;46.97;20.65;;;;;;;10.57;100.00;95153.00;6215539;23;20001;-85
2024/01/25 11:14:43;;;;;;;40.63;20.58;;;;;;;10.59;100.00;95159.56;6191189;23;20005;-85
2024/01/25 11:17:19;;;;;;;42.58;20.95;;;;;;;10.60;100.00;95163.75;6215729;23;20008;-85
2024/01/25 11:19:44;;;;;;;44.65;21.52;;;;;;;10.65;100.00;95162.25;6190863;23;20042;-85
2024/01/25 11:22:11;;;;;;;40.55;20.55;;;;;;;10.83;100.00;95159.25;6215418;23;20000;-85
2024/01/25 11:24:39;;;;;;;46.63;21.90;;;;;;;10.97;100.00;95158.84;6215627;23;19997;-85
2024/01/25 11:27:05;;;;;;;42.80;20.95;;;;;;;10.93;100.00;95157.78;6215348;23;19997;-85